Time;durP1;ratioP1;P1;durP2;ratioP2;P2;SDS_P1;SDS_P2;PMS_P1;PMS_P2;Temp;Humidity;BMP_temperature;BMP_pressure;BME280_temperature;BME280_humidity;BME280_pressure;Samples;Min_cycle;Max_cycle;Signal;HPM_P1;HPM_P2
2023/01/04 00:00:14;;;;;;;11.00;3.00;;;8.40;99.90;;;;;;5072421;28;20113;-50
2023/01/04 00:02:40;;;;;;;8.27;3.10;;;8.40;99.90;;;;;;5072087;28;20119;-50
2023/01/04 00:05:06;;;;;;;8.20;2.90;;;8.50;99.90;;;;;;5072174;28;20567;-48
2023/01/04 00:07:32;;;;;;;9.52;3.17;;;8.40;99.90;;;;;;5072205;28;20365;-49
2023/01/04 00:09:58;;;;;;;8.30;2.90;;;8.40;99.90;;;;;;5072317;28;20048;-49
2023/01/04 00:12:23;;;;;;;8.43;3.00;;;8.40;99.90;;;;;;5072386;28;20106;-49
2023/01/04 00:14:49;;;;;;;8.50;3.10;;;8.30;99.90;;;;;;5071773;28;20042;-52
2023/01/04 00:17:15;;;;;;;9.63;3.25;;;8.40;99.90;;;;;;5080583;28;20090;-50
2023/01/04 00:19:40;;;;;;;9.48;3.60;;;8.30;99.90;;;;;;5071561;28;20076;-48
2023/01/04 00:22:06;;;;;;;10.32;3.47;;;8.30;99.90;;;;;;5070525;28;20072;-48
2023/01/04 00:24:32;;;;;;;10.82;3.63;;;8.30;99.90;;;;;;5071478;28;20037;-53
2023/01/04 00:26:57;;;;;;;8.00;3.42;;;8.30;99.90;;;;;;5071142;28;20403;-48
2023/01/04 00:29:23;;;;;;;9.38;3.58;;;8.20;99.90;;;;;;5071676;28;20051;-49
2023/01/04 00:31:49;;;;;;;12.85;3.17;;;8.20;99.90;;;;;;5071471;28;20491;-50
2023/01/04 00:34:16;;;;;;;8.30;3.10;;;8.20;99.90;;;;;;5074629;28;20039;-51
2023/01/04 00:36:43;;;;;;;10.23;4.05;;;8.20;99.90;;;;;;5079180;28;20045;-49
2023/01/04 00:39:13;;;;;;;10.85;3.88;;;8.10;99.90;;;;;;5071622;28;20063;-49
2023/01/04 00:41:42;;;;;;;10.43;3.53;;;8.20;99.90;;;;;;5071639;28;20036;-53
2023/01/04 00:44:08;;;;;;;10.15;3.67;;;8.20;99.90;;;;;;5070610;28;20392;-51
2023/01/04 00:46:35;;;;;;;11.75;3.47;;;8.10;99.90;;;;;;5071233;28;20052;-48
2023/01/04 00:49:02;;;;;;;6.95;3.50;;;8.10;99.90;;;;;;5071542;28;20040;-53
2023/01/04 00:51:29;;;;;;;9.00;3.58;;;8.10;99.90;;;;;;5077287;28;20040;-51
2023/01/04 00:53:55;;;;;;;14.43;3.92;;;8.10;99.90;;;;;;5071187;28;20037;-48
2023/01/04 00:56:21;;;;;;;10.80;3.65;;;8.00;99.90;;;;;;5069513;28;20134;-50
2023/01/04 00:58:47;;;;;;;12.55;4.07;;;8.00;99.90;;;;;;5071006;28;20041;-51
2023/01/04 01:01:13;;;;;;;11.68;4.03;;;8.20;99.90;;;;;;5070769;28;20107;-51
2023/01/04 01:03:39;;;;;;;11.63;4.35;;;8.20;99.90;;;;;;5075374;28;20447;-49
2023/01/04 01:06:06;;;;;;;8.43;3.40;;;8.10;99.90;;;;;;5077377;28;20036;-51
2023/01/04 01:08:33;;;;;;;13.40;4.25;;;8.20;99.90;;;;;;5070200;28;20468;-50
2023/01/04 01:11:08;;;;;;;12.00;4.57;;;8.20;99.90;;;;;;5071070;28;20040;-47
2023/01/04 01:13:34;;;;;;;14.30;4.43;;;8.10;99.90;;;;;;5074617;28;20049;-51
2023/01/04 01:16:08;;;;;;;8.15;3.40;;;8.10;99.90;;;;;;5070535;28;20123;-47
2023/01/04 01:18:36;;;;;;;9.73;3.65;;;8.30;99.90;;;;;;5071164;28;20417;-48
2023/01/04 01:21:10;;;;;;;9.05;3.63;;;8.30;99.90;;;;;;5068948;28;20041;-49
2023/01/04 01:23:36;;;;;;;;;;;8.00;99.90;;;;;;5070997;28;20394;-50
2023/01/04 01:26:04;;;;;;;8.77;3.80;;;8.30;99.90;;;;;;5068429;28;19920;-49
2023/01/04 01:28:32;;;;;;;8.02;4.00;;;8.10;99.90;;;;;;5070082;28;20052;-48
2023/01/04 01:31:00;;;;;;;8.65;4.10;;;8.10;99.90;;;;;;5071334;28;20384;-50
2023/01/04 01:33:26;;;;;;;9.05;4.25;;;8.30;99.90;;;;;;5071965;28;20048;-47
2023/01/04 01:35:52;;;;;;;9.65;3.92;;;8.20;99.90;;;;;;5075127;28;20090;-46
2023/01/04 01:38:17;;;;;;;11.20;4.13;;;8.30;99.90;;;;;;5078724;28;20037;-52
2023/01/04 01:40:44;;;;;;;7.95;4.00;;;8.60;99.90;;;;;;5072244;28;20465;-50
2023/01/04 01:43:17;;;;;;;9.13;4.47;;;8.40;99.90;;;;;;5077620;28;20036;-50
2023/01/04 01:45:43;;;;;;;6.28;3.25;;;8.50;99.90;;;;;;5069326;28;20040;-50
2023/01/04 01:48:17;;;;;;;7.05;3.85;;;8.50;99.90;;;;;;5082619;28;20422;-50
2023/01/04 01:51:15;;;;;;;7.88;3.83;;;8.50;99.90;;;;;;5070120;28;21306;-48
2023/01/04 01:53:43;;;;;;;7.85;3.95;;;8.30;99.90;;;;;;5061101;28;20101;-49
2023/01/04 01:56:10;;;;;;;10.38;3.80;;;8.20;99.90;;;;;;5077441;28;20050;-50
2023/01/04 01:58:40;;;;;;;5.60;3.58;;;8.50;99.90;;;;;;5069954;28;20036;-51
2023/01/04 02:01:07;;;;;;;11.07;4.05;;;8.60;99.90;;;;;;5070091;28;20476;-49
2023/01/04 02:03:39;;;;;;;5.88;3.20;;;8.20;99.90;;;;;;5070305;28;20033;-50
2023/01/04 02:06:11;;;;;;;7.70;3.55;;;8.20;99.90;;;;;;5079213;28;20058;-50
2023/01/04 02:08:39;;;;;;;8.35;3.10;;;8.50;99.90;;;;;;5070235;28;20045;-52
2023/01/04 02:11:05;;;;;;;7.10;3.10;;;8.40;99.90;;;;;;5069598;28;20072;-49
2023/01/04 02:16:52;;;;;;;9.00;3.28;;;8.70;99.90;;;;;;5069111;28;20044;-49
2023/01/04 02:19:35;;;;;;;7.40;2.97;;;8.70;99.90;;;;;;5069830;28;20428;-50
2023/01/04 02:22:39;;;;;;;6.30;2.70;;;8.30;99.90;;;;;;5077982;28;20495;-45
2023/01/04 02:25:33;;;;;;;5.95;2.60;;;8.30;99.90;;;;;;5069200;28;20048;-49
2023/01/04 02:28:08;;;;;;;5.75;2.25;;;8.40;99.90;;;;;;5068834;28;20053;-48
2023/01/04 02:31:03;;;;;;;4.88;2.40;;;8.80;99.90;;;;;;5081149;28;20047;-51
2023/01/04 02:34:18;;;;;;;3.87;2.17;;;8.90;99.90;;;;;;5075337;28;20039;-51
2023/01/04 02:36:58;;;;;;;5.45;2.45;;;8.90;99.90;;;;;;5059453;28;20330;-53
2023/01/04 02:39:36;;;;;;;4.68;2.00;;;8.50;99.90;;;;;;5072941;28;20037;-49
2023/01/04 02:44:51;;;;;;;4.57;2.10;;;8.50;99.90;;;;;;5072942;28;20036;-49
2023/01/04 02:45:17;;;;;;;4.15;2.20;;;9.10;99.90;;;;;;5070743;28;20191;-50
2023/01/04 02:50:55;;;;;;;4.43;2.20;;;8.60;99.90;;;;;;5034701;28;20373;-52
2023/01/04 02:53:37;;;;;;;4.65;2.33;;;8.70;99.90;;;;;;5069114;28;20147;-51
2023/01/04 02:56:34;;;;;;;3.92;2.60;;;9.30;99.90;;;;;;5074270;28;20051;-48
2023/01/04 02:59:20;;;;;;;4.32;2.72;;;8.90;99.90;;;;;;5079083;28;20032;-52
2023/01/04 03:08:29;;;;;;;6.88;3.97;;;9.60;99.90;;;;;;5066766;28;20709;-52
2023/01/04 03:10:59;;;;;;;6.18;4.40;;;9.60;99.90;;;;;;5070663;28;20032;-49
2023/01/04 03:13:32;;;;;;;6.13;4.90;;;9.50;99.90;;;;;;5068494;28;20039;-49
2023/01/04 03:16:07;;;;;;;6.85;5.18;;;9.60;99.90;;;;;;5071376;28;20413;-47
2023/01/04 03:18:39;;;;;;;6.60;5.28;;;9.00;99.90;;;;;;5068971;28;20036;-47
2023/01/04 03:21:07;;;;;;;9.15;6.07;;;9.40;99.90;;;;;;5069087;28;20487;-50
2023/01/04 03:35:28;;;;;;;9.20;6.13;;;9.30;99.90;;;;;;5070811;28;20040;-47
2023/01/04 03:50:08;;;;;;;11.55;7.55;;;9.30;99.90;;;;;;5071756;28;20137;-52
2023/01/04 03:52:35;;;;;;;9.65;7.55;;;9.80;99.90;;;;;;5073235;28;20039;-49
2023/01/04 03:55:05;;;;;;;11.05;7.72;;;9.20;99.90;;;;;;5072378;28;20480;-49
2023/01/04 03:57:32;;;;;;;9.68;8.38;;;9.60;99.90;;;;;;5070959;28;20041;-53
2023/01/04 04:00:08;;;;;;;9.93;8.18;;;9.90;99.90;;;;;;5071026;28;20040;-51
2023/01/04 04:02:34;;;;;;;10.38;7.90;;;9.90;99.90;;;;;;5072229;28;20040;-50
2023/01/04 04:10:28;;;;;;;13.30;10.48;;;9.50;99.90;;;;;;5076893;28;20388;-50
2023/01/04 04:12:54;;;;;;;13.95;9.95;;;10.00;99.90;;;;;;5080629;28;20032;-47
2023/01/04 04:15:19;;;;;;;12.73;10.90;;;9.50;99.90;;;;;;5083585;28;20437;-50
2023/01/04 04:17:45;;;;;;;13.60;10.98;;;10.10;99.90;;;;;;5076049;28;20055;-49
2023/01/04 04:20:11;;;;;;;13.60;10.88;;;9.80;99.90;;;;;;5078389;28;20040;-49
2023/01/04 04:22:38;;;;;;;14.68;10.68;;;10.20;99.90;;;;;;5071759;28;20031;-52
2023/01/04 04:25:04;;;;;;;14.07;11.02;;;10.20;99.90;;;;;;5071436;28;20037;-48
2023/01/04 04:27:29;;;;;;;13.43;11.02;;;9.80;99.90;;;;;;5072108;28;20067;-49
2023/01/04 04:29:55;;;;;;;13.38;10.80;;;9.70;99.90;;;;;;5072440;28;20048;-49
2023/01/04 04:32:21;;;;;;;14.85;11.70;;;10.30;99.90;;;;;;5070560;28;20076;-50
2023/01/04 04:34:47;;;;;;;14.10;11.75;;;9.90;99.90;;;;;;5073340;28;20048;-52
2023/01/04 04:37:13;;;;;;;15.45;11.48;;;10.20;99.90;;;;;;5071066;28;20090;-50
2023/01/04 04:39:38;;;;;;;15.70;12.85;;;10.30;99.90;;;;;;5071438;28;20075;-48
2023/01/04 04:42:04;;;;;;;16.10;12.32;;;10.30;99.90;;;;;;5078516;28;20068;-51
2023/01/04 04:44:30;;;;;;;16.02;13.18;;;9.70;99.90;;;;;;5071837;28;20036;-50
2023/01/04 04:46:55;;;;;;;17.55;13.52;;;9.60;99.90;;;;;;5075088;28;20127;-48
2023/01/04 04:49:21;;;;;;;15.90;12.40;;;9.70;99.90;;;;;;5071607;28;20403;-50
2023/01/04 04:51:47;;;;;;;17.80;14.10;;;10.30;99.90;;;;;;5077968;28;20123;-48
2023/01/04 04:54:18;;;;;;;17.17;13.48;;;10.10;99.90;;;;;;5082807;28;20041;-48
2023/01/04 04:56:44;;;;;;;18.40;13.68;;;10.00;99.90;;;;;;5070642;28;20036;-49
2023/01/04 04:59:09;;;;;;;17.88;13.65;;;9.70;99.90;;;;;;5071098;28;20541;-51
2023/01/04 05:01:35;;;;;;;18.33;14.07;;;10.20;99.90;;;;;;5071181;28;20036;-50
2023/01/04 05:04:01;;;;;;;16.73;13.90;;;10.00;99.90;;;;;;5078599;28;20399;-51
2023/01/04 05:06:27;;;;;;;18.50;13.95;;;10.50;99.90;;;;;;5070792;28;20044;-48
2023/01/04 05:08:53;;;;;;;18.35;14.80;;;10.50;99.90;;;;;;5070939;28;20519;-49
2023/01/04 05:12:58;;;;;;;18.08;14.25;;;10.50;99.90;;;;;;5070782;28;20182;-50
2023/01/04 05:14:04;;;;;;;16.25;13.88;;;10.00;99.90;;;;;;5069563;28;20052;-49
2023/01/04 05:16:30;;;;;;;17.33;13.98;;;10.30;99.90;;;;;;5071216;28;20044;-48
2023/01/04 05:18:56;;;;;;;17.73;13.18;;;10.30;99.90;;;;;;5070639;28;20086;-49
2023/01/04 05:21:21;;;;;;;17.73;13.15;;;10.70;99.90;;;;;;5078470;28;20036;-49
2023/01/04 05:23:47;;;;;;;15.98;12.88;;;10.70;99.90;;;;;;5076077;28;20063;-49
2023/01/04 05:26:13;;;;;;;15.85;11.90;;;10.80;99.90;;;;;;5083365;28;20044;-51
2023/01/04 05:28:38;;;;;;;14.18;11.23;;;10.80;99.90;;;;;;5076349;28;20063;-50
2023/01/04 05:31:04;;;;;;;14.05;11.63;;;10.10;99.90;;;;;;5069195;28;20499;-49
2023/01/04 05:33:31;;;;;;;14.32;11.07;;;10.80;99.90;;;;;;5070685;28;20047;-47
2023/01/04 05:35:59;;;;;;;12.90;10.60;;;10.60;99.90;;;;;;5070516;28;20127;-50
2023/01/04 05:38:25;;;;;;;15.75;10.00;;;10.30;99.90;;;;;;5070380;28;20028;-49
2023/01/04 05:40:51;;;;;;;18.45;11.05;;;10.60;99.90;;;;;;5073225;28;20089;-48
2023/01/04 05:43:19;;;;;;;14.48;10.43;;;10.70;99.90;;;;;;5069912;28;20559;-48
2023/01/04 05:45:50;;;;;;;12.68;9.85;;;10.80;99.90;;;;;;5077123;28;20468;-49
2023/01/04 05:48:16;;;;;;;15.18;9.55;;;11.00;99.90;;;;;;5069998;28;20040;-46
2023/01/04 05:50:42;;;;;;;12.77;8.90;;;11.00;99.90;;;;;;5076000;28;20051;-48
2023/01/04 05:53:08;;;;;;;13.10;9.15;;;10.40;99.90;;;;;;5073444;28;20025;-47
2023/01/04 05:55:34;;;;;;;15.20;9.65;;;11.00;99.90;;;;;;5078155;28;20036;-51
2023/01/04 05:58:00;;;;;;;14.90;9.43;;;11.00;99.90;;;;;;5073311;28;20049;-49
2023/01/04 06:00:25;;;;;;;13.45;10.23;;;10.80;99.90;;;;;;5070078;28;20044;-49
2023/01/04 06:02:51;;;;;;;14.50;9.80;;;10.50;99.90;;;;;;5069886;28;20048;-49
2023/01/04 06:05:17;;;;;;;15.52;10.15;;;10.70;99.90;;;;;;5070120;28;20107;-46
2023/01/04 06:07:43;;;;;;;15.43;9.65;;;11.00;99.90;;;;;;5069841;28;20518;-46
2023/01/04 06:10:11;;;;;;;17.10;10.02;;;11.00;99.90;;;;;;5080928;28;20050;-48
2023/01/04 06:12:38;;;;;;;12.65;9.82;;;10.40;99.90;;;;;;5072887;28;20033;-50
2023/01/04 06:15:04;;;;;;;11.88;8.65;;;10.40;99.90;;;;;;5079475;28;20060;-48
2023/01/04 06:17:30;;;;;;;12.15;8.38;;;10.70;99.90;;;;;;5086081;28;20372;-49
2023/01/04 06:19:56;;;;;;;9.98;7.18;;;10.40;99.90;;;;;;5074622;28;20048;-50
2023/01/04 06:22:22;;;;;;;13.15;7.43;;;11.10;99.90;;;;;;5072016;28;20404;-46
2023/01/04 06:24:48;;;;;;;10.50;7.05;;;10.60;99.90;;;;;;5083647;28;20028;-51
2023/01/04 06:27:13;;;;;;;11.98;7.32;;;10.80;99.90;;;;;;5075009;28;20053;-48
2023/01/04 06:29:39;;;;;;;9.63;6.47;;;11.10;99.90;;;;;;5082542;28;20404;-49
2023/01/04 06:32:05;;;;;;;9.10;5.93;;;10.60;99.90;;;;;;5072833;28;20032;-49
2023/01/04 06:34:30;;;;;;;9.27;6.25;;;11.00;99.90;;;;;;5069849;28;20045;-51
2023/01/04 06:36:56;;;;;;;8.88;6.22;;;10.40;99.90;;;;;;5069424;28;20055;-49
2023/01/04 06:39:22;;;;;;;10.10;6.15;;;11.10;99.90;;;;;;5069193;28;20159;-51
2023/01/04 06:41:48;;;;;;;9.05;5.88;;;10.40;99.90;;;;;;5082023;28;20036;-50
2023/01/04 06:44:13;;;;;;;8.20;6.10;;;10.70;99.90;;;;;;5070152;28;20040;-49
2023/01/04 06:46:39;;;;;;;7.40;5.45;;;11.10;99.90;;;;;;5070284;28;20097;-47
2023/01/04 06:49:05;;;;;;;8.93;5.20;;;11.00;99.90;;;;;;5067213;28;20038;-50
2023/01/04 06:51:31;;;;;;;8.13;5.22;;;10.90;99.90;;;;;;5070556;28;20043;-49
2023/01/04 06:53:57;;;;;;;8.07;5.53;;;10.60;99.90;;;;;;5069068;28;20036;-48
2023/01/04 06:56:22;;;;;;;6.53;4.65;;;10.70;99.90;;;;;;5068804;28;20504;-47
2023/01/04 06:58:48;;;;;;;7.38;5.65;;;11.00;99.90;;;;;;5083108;28;20082;-52
2023/01/04 07:01:14;;;;;;;9.52;5.72;;;10.70;99.90;;;;;;5081852;28;20032;-49
2023/01/04 07:03:40;;;;;;;7.00;5.25;;;10.50;99.90;;;;;;5079017;28;20115;-49
2023/01/04 07:06:06;;;;;;;8.82;5.72;;;10.70;99.90;;;;;;5073544;28;20041;-47
2023/01/04 07:08:33;;;;;;;8.15;5.75;;;10.40;99.90;;;;;;5074580;28;20036;-52
2023/01/04 07:10:59;;;;;;;8.00;6.03;;;11.10;99.90;;;;;;5083625;28;20483;-49
2023/01/04 07:13:25;;;;;;;9.07;6.05;;;10.80;99.90;;;;;;5074615;28;20090;-48
2023/01/04 07:15:51;;;;;;;8.05;5.85;;;10.50;99.90;;;;;;5072536;28;20033;-51
2023/01/04 07:18:16;;;;;;;9.43;6.15;;;10.70;99.90;;;;;;5080988;28;20072;-50
2023/01/04 07:20:42;;;;;;;10.32;6.35;;;10.60;99.90;;;;;;5072906;28;20040;-50
2023/01/04 07:23:08;;;;;;;8.55;5.80;;;10.50;99.90;;;;;;5055206;28;20036;-50
2023/01/04 07:25:34;;;;;;;9.68;6.10;;;10.50;99.90;;;;;;5071076;28;20462;-49
2023/01/04 07:28:00;;;;;;;9.93;6.00;;;11.10;99.90;;;;;;5087531;28;20043;-51
2023/01/04 07:30:26;;;;;;;10.38;6.50;;;10.70;99.90;;;;;;5093906;28;20156;-48
2023/01/04 07:32:53;;;;;;;10.82;8.10;;;11.00;99.90;;;;;;5078122;28;20141;-52
2023/01/04 07:35:19;;;;;;;11.98;7.70;;;11.20;99.90;;;;;;5072640;28;20048;-49
2023/01/04 07:37:44;;;;;;;12.55;8.20;;;10.60;99.90;;;;;;5082402;28;20048;-51
2023/01/04 07:40:11;;;;;;;13.60;7.72;;;11.20;99.90;;;;;;5072943;28;20040;-47
2023/01/04 07:42:37;;;;;;;13.30;8.63;;;10.50;99.90;;;;;;5072816;28;20072;-48
2023/01/04 07:45:04;;;;;;;12.15;8.43;;;11.20;99.90;;;;;;5082695;28;20036;-48
2023/01/04 07:47:30;;;;;;;14.95;8.43;;;11.10;99.90;;;;;;5077957;28;20055;-50
2023/01/04 07:49:56;;;;;;;13.18;9.23;;;11.30;99.90;;;;;;5063797;28;20049;-48
2023/01/04 07:52:21;;;;;;;14.23;9.93;;;10.90;99.90;;;;;;5059905;28;20041;-48
2023/01/04 07:54:47;;;;;;;14.40;9.43;;;10.50;99.90;;;;;;5060185;28;20080;-47
2023/01/04 07:57:13;;;;;;;13.20;9.80;;;11.30;99.90;;;;;;5061398;28;20032;-48
2023/01/04 07:59:39;;;;;;;15.93;9.40;;;10.70;99.90;;;;;;5058084;28;20913;-51
2023/01/04 08:02:05;;;;;;;15.25;9.25;;;11.30;99.90;;;;;;5064150;28;20047;-47
2023/01/04 08:04:30;;;;;;;13.27;9.07;;;10.70;99.90;;;;;;5055728;28;20094;-47
2023/01/04 08:06:56;;;;;;;12.57;8.45;;;10.70;99.90;;;;;;5063734;28;20119;-46
2023/01/04 08:09:22;;;;;;;13.18;8.98;;;10.70;99.90;;;;;;5062727;28;20028;-51
2023/01/04 08:11:47;;;;;;;15.18;8.85;;;10.60;99.90;;;;;;5062913;28;20101;-50
2023/01/04 08:14:13;;;;;;;14.07;8.90;;;10.60;99.90;;;;;;5063598;28;20408;-49
2023/01/04 08:16:41;;;;;;;14.55;9.13;;;11.20;99.90;;;;;;5059305;28;20120;-50
2023/01/04 08:19:17;;;;;;;11.45;8.77;;;11.20;99.90;;;;;;5063914;28;20496;-51
2023/01/04 08:21:43;;;;;;;12.00;8.63;;;11.30;99.90;;;;;;5062566;28;20061;-46
2023/01/04 08:24:14;;;;;;;11.98;7.85;;;11.20;99.90;;;;;;5063051;28;20078;-46
2023/01/04 08:26:41;;;;;;;12.40;8.32;;;10.70;99.90;;;;;;5061738;28;20047;-53
2023/01/04 08:29:07;;;;;;;15.02;8.70;;;10.70;99.90;;;;;;5062036;28;20040;-48
2023/01/04 08:31:33;;;;;;;13.95;7.35;;;11.10;99.90;;;;;;5061782;28;20037;-47
2023/01/04 08:34:02;;;;;;;17.77;8.68;;;11.30;99.90;;;;;;5061471;28;20044;-47
2023/01/04 08:36:30;;;;;;;12.82;8.60;;;11.10;99.90;;;;;;5062077;28;20041;-46
2023/01/04 08:39:03;;;;;;;13.30;8.52;;;10.80;99.90;;;;;;5062093;28;20112;-46
2023/01/04 08:41:30;;;;;;;10.45;8.15;;;11.20;99.90;;;;;;5058204;28;20041;-49
2023/01/04 08:43:56;;;;;;;10.60;7.28;;;11.40;99.90;;;;;;5061081;28;20040;-46
2023/01/04 08:46:21;;;;;;;10.68;7.85;;;10.70;99.90;;;;;;5061578;28;20040;-46
2023/01/04 08:48:47;;;;;;;12.82;8.68;;;10.70;99.90;;;;;;5057427;28;20252;-48
2023/01/04 08:51:15;;;;;;;13.65;8.57;;;11.40;99.90;;;;;;5059787;28;20041;-49
2023/01/04 08:53:41;;;;;;;11.95;8.70;;;11.40;99.90;;;;;;5059624;28;20492;-46
2023/01/04 08:56:08;;;;;;;14.93;8.52;;;10.70;99.90;;;;;;5060629;28;20044;-46
2023/01/04 08:58:36;;;;;;;14.40;8.90;;;11.50;99.90;;;;;;5060196;28;20067;-47
2023/01/04 09:01:04;;;;;;;10.80;8.10;;;11.40;99.90;;;;;;5060918;28;20028;-46
2023/01/04 09:03:30;;;;;;;12.52;8.98;;;11.40;99.90;;;;;;5060668;28;20040;-49
2023/01/04 09:06:08;;;;;;;11.63;7.55;;;11.50;99.90;;;;;;5058884;28;20590;-48
2023/01/04 09:08:35;;;;;;;11.27;6.97;;;10.90;99.90;;;;;;5059726;28;20115;-50
2023/01/04 09:11:09;;;;;;;9.95;6.75;;;11.10;99.90;;;;;;5062844;28;20110;-47
2023/01/04 09:13:35;;;;;;;12.30;6.53;;;11.50;99.90;;;;;;5059873;28;20024;-47
2023/01/04 09:16:02;;;;;;;7.88;5.55;;;11.50;99.90;;;;;;5062700;28;20116;-48
2023/01/04 09:18:29;;;;;;;8.32;5.18;;;10.80;99.90;;;;;;5061137;28;20479;-47
2023/01/04 09:20:55;;;;;;;7.20;4.82;;;10.80;99.90;;;;;;5062152;28;20488;-46
2023/01/04 09:23:21;;;;;;;6.55;4.82;;;11.50;99.90;;;;;;5059289;28;20040;-46
2023/01/04 09:25:47;;;;;;;6.63;3.72;;;11.50;99.90;;;;;;5062657;28;20068;-51
2023/01/04 09:28:14;;;;;;;5.57;3.47;;;11.30;99.90;;;;;;5058247;28;20495;-50
2023/01/04 09:30:40;;;;;;;5.15;3.30;;;11.60;99.90;;;;;;5058641;28;20082;-48
2023/01/04 09:33:05;;;;;;;4.40;3.20;;;11.30;99.90;;;;;;5059689;28;20036;-49
2023/01/04 09:35:32;;;;;;;5.72;3.20;;;10.80;99.90;;;;;;5058083;28;20037;-50
2023/01/04 09:37:57;;;;;;;5.43;3.00;;;10.90;99.90;;;;;;5058154;28;20079;-49
2023/01/04 09:40:46;;;;;;;5.45;2.60;;;11.60;99.90;;;;;;5059689;28;20037;-46
2023/01/04 09:43:19;;;;;;;3.78;2.30;;;11.10;99.90;;;;;;5056351;28;20032;-46
2023/01/04 09:45:49;;;;;;;3.90;2.40;;;11.00;99.90;;;;;;5059535;28;20450;-49
2023/01/04 09:48:23;;;;;;;3.67;2.30;;;11.00;99.90;;;;;;5057728;28;20043;-47
2023/01/04 09:51:01;;;;;;;3.70;2.42;;;11.30;99.90;;;;;;5056816;28;20040;-46
2023/01/04 09:53:39;;;;;;;3.65;2.30;;;11.00;99.90;;;;;;5055985;28;20029;-50
2023/01/04 09:56:33;;;;;;;5.10;2.53;;;11.60;99.90;;;;;;5057801;28;20056;-51
2023/01/04 09:59:03;;;;;;;8.57;3.00;;;11.50;99.90;;;;;;5059338;28;20072;-50
2023/01/04 10:01:47;;;;;;;4.43;2.42;;;11.50;99.90;;;;;;5061427;28;20040;-48
2023/01/04 10:04:38;;;;;;;5.97;3.03;;;11.00;99.90;;;;;;5057574;28;20391;-47
2023/01/04 10:07:04;;;;;;;5.75;2.40;;;11.50;99.90;;;;;;5056904;28;20070;-50
2023/01/04 10:09:30;;;;;;;5.47;2.70;;;11.10;99.90;;;;;;5055243;28;20044;-49
2023/01/04 10:12:17;;;;;;;9.68;2.85;;;11.00;99.90;;;;;;5058075;28;20041;-51
2023/01/04 10:15:03;;;;;;;7.00;3.10;;;11.30;99.90;;;;;;5059937;28;20033;-48
2023/01/04 10:17:44;;;;;;;10.32;2.90;;;11.80;99.90;;;;;;5058734;28;20072;-50
2023/01/04 10:20:48;;;;;;;9.15;3.00;;;11.20;99.90;;;;;;5058468;28;20036;-48
2023/01/04 10:23:42;;;;;;;12.32;3.53;;;11.70;99.90;;;;;;5060727;28;20025;-48
2023/01/04 10:26:14;;;;;;;12.07;4.15;;;11.50;99.90;;;;;;5058246;28;20389;-47
2023/01/04 10:28:54;;;;;;;12.13;4.18;;;11.70;99.90;;;;;;5059980;28;20447;-47
2023/01/04 10:31:25;;;;;;;14.07;4.07;;;12.10;99.90;;;;;;5057418;28;20055;-49
2023/01/04 10:34:14;;;;;;;12.13;3.65;;;11.50;99.90;;;;;;5059716;28;20504;-47
2023/01/04 10:36:40;;;;;;;16.88;3.80;;;12.20;99.90;;;;;;5062871;28;20040;-49
2023/01/04 10:39:18;;;;;;;11.60;3.38;;;11.60;99.90;;;;;;5061668;28;20041;-46
2023/01/04 10:41:58;;;;;;;12.43;3.72;;;11.60;99.90;;;;;;5063112;28;20044;-47
2023/01/04 10:44:37;;;;;;;12.63;3.70;;;12.30;99.90;;;;;;5061955;28;20091;-47
2023/01/04 10:47:14;;;;;;;14.27;4.45;;;12.00;99.90;;;;;;5063386;28;20040;-49
2023/01/04 10:49:57;;;;;;;11.82;3.50;;;12.30;99.90;;;;;;5062267;28;20086;-50
2023/01/04 10:52:46;;;;;;;19.15;3.35;;;11.70;99.90;;;;;;5063178;28;20372;-46
2023/01/04 10:55:20;;;;;;;13.98;4.20;;;11.90;99.90;;;;;;5062144;28;20399;-50
2023/01/04 10:58:19;;;;;;;15.17;3.87;;;11.70;99.90;;;;;;5062672;28;20047;-49
2023/01/04 11:00:54;;;;;;;16.20;3.90;;;12.20;99.90;;;;;;5061255;28;20322;-48
2023/01/04 11:03:30;;;;;;;18.05;3.88;;;12.00;99.90;;;;;;5059318;28;20064;-48
2023/01/04 11:06:16;;;;;;;16.77;3.20;;;12.30;99.90;;;;;;5063639;28;20037;-50
2023/01/04 11:08:49;;;;;;;20.20;4.13;;;12.20;99.90;;;;;;5063207;28;20055;-48
2023/01/04 11:11:23;;;;;;;10.35;3.28;;;11.80;99.90;;;;;;5063115;28;20561;-50
2023/01/04 11:13:49;;;;;;;;;;;12.40;99.90;;;;;;5063862;28;20033;-46
2023/01/04 11:16:15;;;;;;;21.25;3.75;;;12.40;99.90;;;;;;5059563;28;20339;-50
2023/01/04 11:18:43;;;;;;;17.80;3.28;;;12.50;99.90;;;;;;5062808;28;20043;-47
2023/01/04 11:21:13;;;;;;;17.15;3.75;;;12.00;99.90;;;;;;5060878;28;20034;-46
2023/01/04 11:23:39;;;;;;;18.30;4.38;;;12.30;99.90;;;;;;5059109;28;20033;-47
2023/01/04 11:26:28;;;;;;;16.50;4.22;;;12.00;99.90;;;;;;5063400;28;20044;-44
2023/01/04 11:29:25;;;;;;;23.42;4.30;;;12.00;99.90;;;;;;5063789;28;20060;-47
2023/01/04 11:32:00;;;;;;;18.98;4.15;;;12.40;99.90;;;;;;5064952;28;20039;-47
2023/01/04 11:34:53;;;;;;;21.15;4.28;;;12.60;99.90;;;;;;5063634;28;20127;-49
2023/01/04 11:37:36;;;;;;;17.85;4.43;;;12.20;99.90;;;;;;5061327;28;20048;-47
2023/01/04 11:40:18;;;;;;;15.38;3.60;;;12.40;99.90;;;;;;5062211;28;20082;-51
2023/01/04 11:42:45;;;;;;;19.05;4.30;;;12.20;99.90;;;;;;5061580;28;20055;-44
2023/01/04 11:45:37;;;;;;;16.05;3.83;;;12.50;99.90;;;;;;5062759;28;20041;-47
2023/01/04 11:48:05;;;;;;;13.05;3.20;;;12.20;99.90;;;;;;5060139;28;20041;-47
2023/01/04 11:50:39;;;;;;;15.18;3.72;;;12.50;99.90;;;;;;5060081;28;20056;-48
2023/01/04 11:53:28;;;;;;;11.68;3.75;;;12.40;99.90;;;;;;5059536;28;20535;-48
2023/01/04 11:56:14;;;;;;;11.35;2.70;;;12.40;99.90;;;;;;5060363;28;20468;-50
2023/01/04 11:58:42;;;;;;;6.20;1.88;;;12.50;99.90;;;;;;5060316;28;20036;-50
2023/01/04 12:01:20;;;;;;;7.80;1.83;;;11.90;99.90;;;;;;5056255;28;20047;-49
2023/01/04 12:03:46;;;;;;;6.13;1.73;;;12.10;99.90;;;;;;5056419;28;20407;-48
2023/01/04 12:06:23;;;;;;;9.35;2.10;;;12.40;99.90;;;;;;5058364;28;20044;-46
2023/01/04 12:08:49;;;;;;;5.57;1.80;;;12.00;99.90;;;;;;5062497;28;20582;-48
2023/01/04 12:11:35;;;;;;;4.90;1.67;;;12.00;99.90;;;;;;5070496;28;20150;-50
2023/01/04 12:14:02;;;;;;;4.80;1.92;;;12.00;99.90;;;;;;5050589;28;20036;-48
2023/01/04 12:16:49;;;;;;;7.38;2.00;;;12.20;99.90;;;;;;5064769;28;20044;-48
2023/01/04 12:19:17;;;;;;;9.25;2.40;;;12.40;99.90;;;;;;5065619;28;20040;-47
2023/01/04 12:21:47;;;;;;;7.95;2.50;;;12.00;99.90;;;;;;5062151;28;20110;-48
2023/01/04 12:24:26;;;;;;;6.45;1.65;;;12.30;99.90;;;;;;5062370;28;20158;-49
2023/01/04 12:26:53;;;;;;;6.55;1.55;;;12.40;99.90;;;;;;5061442;28;20048;-50
2023/01/04 12:29:21;;;;;;;5.32;1.50;;;12.40;99.90;;;;;;5056719;28;20048;-46
2023/01/04 12:32:04;;;;;;;5.38;1.48;;;12.20;99.90;;;;;;5058833;28;20373;-49
2023/01/04 12:34:30;;;;;;;7.00;1.55;;;12.40;99.90;;;;;;5064840;28;20039;-48
2023/01/04 12:36:58;;;;;;;8.07;1.58;;;12.10;99.90;;;;;;5064231;28;20040;-47
2023/01/04 12:39:28;;;;;;;8.25;1.70;;;12.00;99.90;;;;;;5066712;28;20159;-49
2023/01/04 12:41:59;;;;;;;9.85;1.95;;;12.20;99.90;;;;;;5069193;28;20042;-48
2023/01/04 12:44:42;;;;;;;12.13;2.38;;;12.40;99.90;;;;;;5068316;28;20032;-49
2023/01/04 12:50:12;;;;;;;12.27;2.22;;;12.40;99.90;;;;;;5068985;28;20041;-46
2023/01/04 12:52:48;;;;;;;13.10;2.33;;;12.30;99.90;;;;;;5070610;28;20119;-49
2023/01/04 12:55:32;;;;;;;14.90;2.72;;;12.10;99.90;;;;;;5068492;28;20123;-46
2023/01/04 12:57:59;;;;;;;12.07;3.03;;;12.10;99.90;;;;;;5068229;28;20044;-49
2023/01/04 13:00:51;;;;;;;16.15;3.20;;;12.20;99.90;;;;;;5069564;28;20044;-49
2023/01/04 13:03:16;;;;;;;16.90;3.45;;;12.40;99.90;;;;;;5066740;28;20065;-50
2023/01/04 13:05:55;;;;;;;14.43;2.70;;;12.20;99.90;;;;;;5084361;28;20115;-47
2023/01/04 13:08:21;;;;;;;15.13;2.88;;;12.20;99.90;;;;;;5071912;28;20490;-49
2023/01/04 13:10:48;;;;;;;15.63;3.65;;;12.40;99.90;;;;;;5059526;28;20039;-47
2023/01/04 13:13:33;;;;;;;12.93;2.85;;;12.30;99.90;;;;;;5076396;28;20036;-49
2023/01/04 13:16:18;;;;;;;15.63;3.35;;;12.20;99.90;;;;;;5069836;28;20039;-51
2023/01/04 13:18:51;;;;;;;17.20;3.10;;;12.30;99.90;;;;;;5070838;28;20024;-49
2023/01/04 13:21:40;;;;;;;15.60;3.05;;;12.30;99.90;;;;;;5069609;28;20495;-47
2023/01/04 13:24:18;;;;;;;13.85;2.55;;;12.30;99.90;;;;;;5070641;28;20048;-46
2023/01/04 13:26:47;;;;;;;17.92;3.33;;;12.40;99.90;;;;;;5075139;28;20387;-50
2023/01/04 13:29:25;;;;;;;22.38;3.50;;;12.30;99.90;;;;;;5073419;28;20097;-49
2023/01/04 13:32:24;;;;;;;17.20;3.70;;;12.40;99.90;;;;;;5069749;28;20045;-47
2023/01/04 13:35:12;;;;;;;13.55;3.20;;;12.30;99.90;;;;;;5062372;28;20044;-50
2023/01/04 13:37:49;;;;;;;15.90;2.97;;;12.40;99.90;;;;;;5083074;28;20938;-49
2023/01/04 13:40:36;;;;;;;15.73;3.40;;;12.40;99.90;;;;;;5068637;28;20036;-48
2023/01/04 13:43:13;;;;;;;16.98;3.55;;;12.30;99.90;;;;;;5083434;28;20052;-48
2023/01/04 13:45:57;;;;;;;18.30;3.33;;;12.30;99.90;;;;;;5070940;28;20468;-50
2023/01/04 13:48:24;;;;;;;15.00;3.22;;;12.30;99.90;;;;;;5067518;28;20036;-48